Time;durP1;ratioP1;P1;durP2;ratioP2;P2;SDS_P1;SDS_P2;PMS_P1;PMS_P2;Temp;Humidity;BMP_temperature;BMP_pressure;BME280_temperature;BME280_humidity;BME280_pressure;Samples;Min_cycle;Max_cycle;Signal;HPM_P1;HPM_P2
2023/08/16 00:00:46;;;;;;;3.67;3.30;;;24.40;99.90;;;;;;4964972;28;20214;-66
2023/08/16 00:03:14;;;;;;;3.60;3.40;;;24.30;99.90;;;;;;4966553;28;20245;-66
2023/08/16 00:05:42;;;;;;;3.17;2.97;;;24.00;99.90;;;;;;4966473;28;20213;-66
2023/08/16 00:08:09;;;;;;;3.50;3.10;;;24.00;99.90;;;;;;4966585;28;20314;-66
2023/08/16 00:10:37;;;;;;;3.28;3.08;;;24.00;99.90;;;;;;4966539;28;20616;-66
2023/08/16 00:13:04;;;;;;;3.40;3.17;;;23.90;99.90;;;;;;4966497;28;20321;-66
2023/08/16 00:15:31;;;;;;;3.58;3.22;;;23.80;99.90;;;;;;4966101;28;20211;-66
2023/08/16 00:17:58;;;;;;;5.88;3.72;;;23.60;99.90;;;;;;4966449;28;20226;-66
2023/08/16 00:20:27;;;;;;;3.60;3.20;;;23.50;99.90;;;;;;4966144;28;20215;-65
2023/08/16 00:22:54;;;;;;;3.72;3.42;;;23.40;99.90;;;;;;4966439;28;20211;-65
2023/08/16 00:25:21;;;;;;;3.83;3.63;;;23.40;99.90;;;;;;4966545;28;20202;-65
2023/08/16 00:27:49;;;;;;;4.18;3.75;;;23.40;99.90;;;;;;4966756;28;20542;-65
2023/08/16 00:30:17;;;;;;;3.83;3.20;;;23.50;99.90;;;;;;4966039;28;20230;-65
2023/08/16 00:32:44;;;;;;;3.08;2.88;;;23.50;99.90;;;;;;4966385;28;20357;-65
2023/08/16 00:35:11;;;;;;;3.47;3.17;;;23.70;99.90;;;;;;4966913;28;20218;-65
2023/08/16 00:37:39;;;;;;;3.40;3.20;;;23.80;99.90;;;;;;4966786;28;20227;-66
2023/08/16 00:40:08;;;;;;;3.60;3.35;;;23.90;99.90;;;;;;4966013;28;20673;-65
2023/08/16 00:42:35;;;;;;;3.67;2.90;;;24.00;99.90;;;;;;4965829;28;20219;-65
2023/08/16 00:45:04;;;;;;;2.78;2.58;;;24.00;99.90;;;;;;4967958;28;20744;-65
2023/08/16 00:47:32;;;;;;;3.65;2.70;;;24.10;99.90;;;;;;4970144;28;20301;-65
2023/08/16 00:49:59;;;;;;;3.17;2.78;;;24.10;99.90;;;;;;4970109;28;20230;-66
2023/08/16 00:52:26;;;;;;;2.72;2.53;;;24.00;99.90;;;;;;4970183;28;20202;-66
2023/08/16 00:54:54;;;;;;;2.80;2.45;;;24.00;99.90;;;;;;4970296;28;20218;-66
2023/08/16 00:57:21;;;;;;;2.75;2.60;;;24.00;99.90;;;;;;4970474;28;20214;-66
2023/08/16 00:59:49;;;;;;;2.97;2.78;;;24.00;99.90;;;;;;4970201;28;20210;-66
2023/08/16 01:02:20;;;;;;;2.60;2.50;;;24.00;99.90;;;;;;4969753;28;20233;-66
2023/08/16 01:04:48;;;;;;;2.50;2.40;;;24.00;99.90;;;;;;4970098;28;20681;-66
2023/08/16 01:07:15;;;;;;;2.60;2.50;;;24.00;99.90;;;;;;4969523;28;20688;-66
2023/08/16 01:09:42;;;;;;;2.60;2.40;;;24.00;99.90;;;;;;4970003;28;20234;-65
2023/08/16 01:12:16;;;;;;;2.80;2.60;;;24.00;99.90;;;;;;4969428;28;20659;-65
2023/08/16 01:14:51;;;;;;;2.85;2.30;;;24.00;99.90;;;;;;4969758;28;20222;-66
2023/08/16 01:17:21;;;;;;;2.55;2.35;;;24.00;99.90;;;;;;4970025;28;20214;-66
2023/08/16 01:19:50;;;;;;;2.85;2.70;;;24.00;99.90;;;;;;4969658;28;20285;-66
2023/08/16 01:22:27;;;;;;;2.30;2.10;;;24.00;99.90;;;;;;4968677;28;20754;-65
2023/08/16 01:25:12;;;;;;;2.85;2.65;;;23.80;99.90;;;;;;4969705;28;20580;-65
2023/08/16 01:27:44;;;;;;;3.20;2.40;;;23.80;99.90;;;;;;4969446;28;20202;-65
2023/08/16 01:30:12;;;;;;;2.50;2.40;;;23.80;99.90;;;;;;4969226;28;20321;-65
2023/08/16 01:32:40;;;;;;;2.95;2.45;;;23.80;99.90;;;;;;4968989;28;20238;-65
2023/08/16 01:35:07;;;;;;;3.00;2.63;;;23.80;99.90;;;;;;4969118;28;20290;-65
2023/08/16 01:37:34;;;;;;;3.30;3.00;;;23.80;99.90;;;;;;4969338;28;20207;-65
2023/08/16 01:40:05;;;;;;;3.15;2.75;;;23.80;99.90;;;;;;4969283;28;20225;-65
2023/08/16 01:42:36;;;;;;;4.20;2.90;;;23.70;99.90;;;;;;4968740;28;20298;-65
2023/08/16 01:45:07;;;;;;;3.58;3.28;;;23.70;99.90;;;;;;4968853;28;20210;-65
2023/08/16 01:47:37;;;;;;;2.72;2.63;;;23.70;99.90;;;;;;4969155;28;20261;-65
2023/08/16 01:50:06;;;;;;;3.22;3.03;;;23.70;99.90;;;;;;4968962;28;20690;-65
2023/08/16 01:52:34;;;;;;;3.70;3.40;;;23.60;99.90;;;;;;4966302;28;20218;-65
2023/08/16 01:55:03;;;;;;;3.20;3.00;;;23.70;99.90;;;;;;4968986;28;20733;-65
2023/08/16 01:57:31;;;;;;;3.42;3.15;;;23.70;99.90;;;;;;4968943;28;20202;-65
2023/08/16 01:59:58;;;;;;;3.67;3.22;;;23.60;99.90;;;;;;4968500;28;20649;-65
2023/08/16 02:02:26;;;;;;;3.47;3.22;;;23.60;99.90;;;;;;4968433;28;20246;-65
2023/08/16 02:04:54;;;;;;;3.17;2.97;;;23.60;99.90;;;;;;4969075;28;20214;-65
2023/08/16 02:07:21;;;;;;;3.30;3.10;;;23.60;99.90;;;;;;4968417;28;20867;-65
2023/08/16 02:09:48;;;;;;;3.63;3.42;;;23.60;99.90;;;;;;4968826;28;20215;-65
2023/08/16 02:12:15;;;;;;;3.67;3.47;;;23.60;99.90;;;;;;4968704;28;20739;-65
2023/08/16 02:14:42;;;;;;;3.55;3.35;;;23.60;99.90;;;;;;4968629;28;20233;-65
2023/08/16 02:17:10;;;;;;;3.30;2.85;;;23.60;99.90;;;;;;4968207;28;20211;-66
2023/08/16 02:19:41;;;;;;;4.35;3.30;;;23.60;99.90;;;;;;4968421;28;20665;-65
2023/08/16 02:22:08;;;;;;;4.15;3.50;;;23.60;99.90;;;;;;4968117;28;20704;-65
2023/08/16 02:24:35;;;;;;;3.90;3.60;;;23.60;99.90;;;;;;4968776;28;20257;-65
2023/08/16 02:27:02;;;;;;;3.60;3.40;;;23.60;99.90;;;;;;4953357;28;20274;-65
2023/08/16 02:29:29;;;;;;;4.00;3.70;;;23.60;99.90;;;;;;4948254;28;20221;-65
2023/08/16 02:31:56;;;;;;;3.67;3.42;;;23.50;99.90;;;;;;4966530;28;20243;-65
2023/08/16 02:34:24;;;;;;;3.70;3.47;;;23.50;99.90;;;;;;4966883;28;20612;-65
2023/08/16 02:36:52;;;;;;;3.75;3.42;;;23.50;99.90;;;;;;4966865;28;20581;-66
2023/08/16 02:39:20;;;;;;;3.75;3.47;;;23.50;99.90;;;;;;4966614;28;20230;-66
2023/08/16 02:41:48;;;;;;;4.22;3.17;;;23.50;99.90;;;;;;4966231;28;20234;-66
2023/08/16 02:44:15;;;;;;;3.90;3.63;;;23.40;99.90;;;;;;4966334;28;20277;-66
2023/08/16 02:46:42;;;;;;;3.35;3.13;;;23.50;99.90;;;;;;4966755;28;20777;-66
2023/08/16 02:49:09;;;;;;;3.50;3.30;;;23.50;99.90;;;;;;4966748;28;20670;-66
2023/08/16 02:51:37;;;;;;;3.67;3.42;;;23.50;99.90;;;;;;4966102;28;20314;-66
2023/08/16 02:54:07;;;;;;;3.67;3.38;;;23.50;99.90;;;;;;4966057;28;20674;-66
2023/08/16 02:56:34;;;;;;;3.47;3.28;;;23.50;99.90;;;;;;4966579;28;20207;-66
2023/08/16 02:59:01;;;;;;;3.65;3.40;;;23.50;99.90;;;;;;4966197;28;20301;-66
2023/08/16 03:01:31;;;;;;;3.63;3.35;;;23.40;99.90;;;;;;4965930;28;20246;-66
2023/08/16 03:04:04;;;;;;;3.83;3.50;;;23.40;99.90;;;;;;4966121;28;20321;-66
2023/08/16 03:06:31;;;;;;;4.03;3.40;;;23.40;99.90;;;;;;4965950;28;20198;-66
2023/08/16 03:09:01;;;;;;;3.90;3.63;;;23.30;99.90;;;;;;4962893;28;20709;-66
2023/08/16 03:11:29;;;;;;;3.70;3.35;;;23.30;99.90;;;;;;4954319;28;20243;-66
2023/08/16 03:13:59;;;;;;;6.05;3.70;;;23.30;99.90;;;;;;4959600;28;20619;-66
2023/08/16 03:16:26;;;;;;;3.42;3.13;;;23.30;99.90;;;;;;4966817;28;20266;-66
2023/08/16 03:18:53;;;;;;;3.63;3.33;;;23.30;99.90;;;;;;4967801;28;20621;-66
2023/08/16 03:21:23;;;;;;;4.07;3.65;;;23.30;99.90;;;;;;4966993;28;20700;-66
2023/08/16 03:23:50;;;;;;;3.90;3.58;;;23.30;99.90;;;;;;4967415;28;20226;-66
2023/08/16 03:26:18;;;;;;;3.30;3.03;;;23.20;99.90;;;;;;4967758;28;20219;-66
2023/08/16 03:28:49;;;;;;;4.38;3.33;;;23.10;99.90;;;;;;4967249;28;20218;-66
2023/08/16 03:31:18;;;;;;;5.30;3.45;;;23.20;99.90;;;;;;4966591;28;20618;-66
2023/08/16 03:33:45;;;;;;;3.38;3.17;;;23.20;99.90;;;;;;4967345;28;20201;-66
2023/08/16 03:36:13;;;;;;;4.03;3.72;;;23.20;99.90;;;;;;4967388;28;20859;-66
2023/08/16 03:38:54;;;;;;;5.72;3.60;;;23.20;99.90;;;;;;5123580;27;20686;-66
2023/08/16 03:41:21;;;;;;;3.72;3.42;;;23.20;99.90;;;;;;5123118;28;20305;-66
2023/08/16 03:43:48;;;;;;;3.50;3.30;;;23.10;99.90;;;;;;5114116;27;20301;-66
2023/08/16 03:46:15;;;;;;;4.00;3.70;;;23.10;99.90;;;;;;5102912;28;20206;-66
2023/08/16 03:48:43;;;;;;;3.72;3.53;;;23.10;99.90;;;;;;5102800;28;20245;-69
2023/08/16 03:51:10;;;;;;;3.85;3.20;;;23.10;99.90;;;;;;5110767;28;20283;-68
2023/08/16 03:53:37;;;;;;;3.88;3.55;;;23.10;99.90;;;;;;5123356;28;20197;-67
2023/08/16 03:56:06;;;;;;;3.72;3.50;;;23.10;99.90;;;;;;5123570;28;20213;-67
2023/08/16 03:58:33;;;;;;;3.72;3.42;;;23.10;99.90;;;;;;5122801;28;20225;-67
2023/08/16 04:01:00;;;;;;;4.43;3.70;;;23.10;99.90;;;;;;5123187;28;20213;-67
2023/08/16 04:03:28;;;;;;;4.20;3.80;;;23.00;99.90;;;;;;5122576;28;20197;-67
2023/08/16 04:05:55;;;;;;;4.40;4.07;;;23.00;99.90;;;;;;5123027;28;20236;-67
2023/08/16 04:08:22;;;;;;;4.45;4.05;;;22.90;99.90;;;;;;5122810;28;20225;-67
2023/08/16 04:10:49;;;;;;;3.92;3.67;;;22.90;99.90;;;;;;5122927;27;20222;-67
2023/08/16 04:13:17;;;;;;;4.03;3.70;;;22.80;99.90;;;;;;5122802;27;20237;-67
2023/08/16 04:15:44;;;;;;;4.05;3.83;;;22.80;99.90;;;;;;5122853;28;20209;-66
2023/08/16 04:18:11;;;;;;;4.70;4.30;;;22.50;99.90;;;;;;5122867;28;20225;-67
2023/08/16 04:20:38;;;;;;;4.60;4.28;;;22.50;99.90;;;;;;5118812;28;20209;-67
2023/08/16 04:23:08;;;;;;;4.22;3.90;;;22.50;99.90;;;;;;5102554;28;20217;-66
2023/08/16 04:25:35;;;;;;;4.53;4.22;;;22.50;99.90;;;;;;5102228;28;20234;-66
2023/08/16 04:28:02;;;;;;;4.35;3.95;;;22.60;99.90;;;;;;5102220;28;20653;-67
2023/08/16 04:30:30;;;;;;;3.83;3.53;;;22.60;99.90;;;;;;5101803;28;20673;-66
2023/08/16 04:32:57;;;;;;;4.43;4.03;;;22.60;99.90;;;;;;5102375;28;20297;-67
2023/08/16 04:35:24;;;;;;;4.78;4.25;;;22.60;99.90;;;;;;5102126;28;20281;-66
2023/08/16 04:37:51;;;;;;;4.40;4.10;;;22.60;99.90;;;;;;5101864;28;20304;-67
2023/08/16 04:40:18;;;;;;;4.18;3.88;;;22.70;99.90;;;;;;5101678;27;20301;-68
2023/08/16 04:42:45;;;;;;;6.57;4.50;;;22.70;99.90;;;;;;5101859;28;20217;-66
2023/08/16 04:45:12;;;;;;;4.50;4.10;;;22.70;99.90;;;;;;5101869;28;20216;-67
2023/08/16 04:47:40;;;;;;;4.40;4.03;;;22.70;99.90;;;;;;5111538;28;20564;-67
2023/08/16 04:50:07;;;;;;;4.85;4.45;;;22.70;99.90;;;;;;5109357;28;20329;-67
2023/08/16 04:52:35;;;;;;;4.35;4.05;;;22.70;99.90;;;;;;5108073;28;20247;-66
2023/08/16 04:55:02;;;;;;;5.32;4.50;;;22.70;99.90;;;;;;5108309;28;20300;-66
2023/08/16 04:57:29;;;;;;;8.55;4.90;;;22.70;99.90;;;;;;5107812;28;20275;-66
2023/08/16 04:59:56;;;;;;;5.15;4.65;;;22.70;99.90;;;;;;5108553;28;20297;-67
2023/08/16 05:02:23;;;;;;;5.05;4.65;;;22.80;99.90;;;;;;5108259;28;20305;-66
2023/08/16 05:04:51;;;;;;;7.65;4.80;;;22.80;99.90;;;;;;5108735;28;20573;-67
2023/08/16 05:07:18;;;;;;;8.43;5.22;;;22.80;99.90;;;;;;5108679;28;20313;-67
2023/08/16 05:09:45;;;;;;;5.13;4.68;;;22.80;99.90;;;;;;5106105;28;20217;-66
2023/08/16 05:12:12;;;;;;;4.85;4.43;;;22.80;99.90;;;;;;5105973;28;20301;-67
2023/08/16 05:14:38;;;;;;;4.63;4.30;;;22.80;99.90;;;;;;5107643;28;20722;-67
2023/08/16 05:17:05;;;;;;;5.65;4.30;;;22.80;99.90;;;;;;5107881;28;20297;-67
2023/08/16 05:19:32;;;;;;;4.72;4.28;;;22.80;99.90;;;;;;5107877;28;20662;-67
2023/08/16 05:22:00;;;;;;;5.40;4.50;;;22.80;99.90;;;;;;5093098;28;20680;-66
2023/08/16 05:24:27;;;;;;;5.60;5.10;;;22.90;99.90;;;;;;5087637;28;20217;-67
2023/08/16 05:26:54;;;;;;;4.90;4.43;;;22.90;99.90;;;;;;5087990;28;20306;-66
2023/08/16 05:29:21;;;;;;;5.00;4.60;;;22.90;99.90;;;;;;5087250;28;20711;-67
2023/08/16 05:31:48;;;;;;;5.00;4.63;;;22.90;99.90;;;;;;5087574;28;20298;-66
2023/08/16 05:34:16;;;;;;;5.57;5.00;;;22.90;99.90;;;;;;5087057;28;20673;-67
2023/08/16 05:36:47;;;;;;;7.03;4.63;;;22.90;99.90;;;;;;5087285;28;20218;-67
2023/08/16 05:39:15;;;;;;;6.43;4.93;;;22.90;99.90;;;;;;5087779;28;20297;-67
2023/08/16 05:41:45;;;;;;;5.05;4.75;;;22.90;99.90;;;;;;5117803;27;20237;-67
2023/08/16 05:44:12;;;;;;;4.45;4.15;;;22.90;99.90;;;;;;5114971;27;20694;-67
2023/08/16 05:46:39;;;;;;;5.20;4.13;;;22.90;99.90;;;;;;5107126;28;20762;-66
2023/08/16 05:49:06;;;;;;;5.10;4.70;;;22.90;99.90;;;;;;5106889;28;20210;-67
2023/08/16 05:51:33;;;;;;;4.70;4.40;;;23.00;99.90;;;;;;5107057;28;20206;-66
2023/08/16 05:54:00;;;;;;;5.20;4.72;;;23.00;99.90;;;;;;5106994;28;20293;-67
2023/08/16 05:56:28;;;;;;;5.50;4.82;;;23.00;99.90;;;;;;5107000;28;20212;-66
2023/08/16 05:58:55;;;;;;;4.70;4.40;;;23.00;99.90;;;;;;5106853;28;20229;-67
2023/08/16 06:01:25;;;;;;;5.30;4.70;;;23.00;99.90;;;;;;5105547;28;20324;-67
2023/08/16 06:03:52;;;;;;;5.80;4.45;;;23.10;99.90;;;;;;5106869;28;20202;-67
2023/08/16 06:06:19;;;;;;;4.78;4.47;;;23.10;99.90;;;;;;5106805;28;20205;-67
2023/08/16 06:08:46;;;;;;;5.43;4.90;;;23.10;99.90;;;;;;5106655;28;20271;-67
2023/08/16 06:11:14;;;;;;;5.50;4.68;;;23.20;99.90;;;;;;5117927;27;20214;-67
2023/08/16 06:13:42;;;;;;;5.15;4.75;;;23.20;99.90;;;;;;5117454;27;20194;-67
2023/08/16 06:16:10;;;;;;;5.57;5.18;;;23.20;99.90;;;;;;5107509;28;20209;-67
2023/08/16 06:18:37;;;;;;;5.32;4.90;;;23.20;99.90;;;;;;5106944;28;20226;-67
2023/08/16 06:21:04;;;;;;;7.05;5.75;;;23.30;99.90;;;;;;5106297;28;20205;-67
2023/08/16 06:23:31;;;;;;;6.32;5.75;;;23.30;99.90;;;;;;5106795;28;20230;-67
2023/08/16 06:25:58;;;;;;;6.40;5.90;;;23.30;99.90;;;;;;5106965;28;20202;-67
2023/08/16 06:28:24;;;;;;;7.40;5.70;;;23.30;99.90;;;;;;5106396;28;20216;-67
2023/08/16 06:30:53;;;;;;;7.47;6.38;;;23.30;99.90;;;;;;5106914;28;20208;-67
2023/08/16 06:33:22;;;;;;;8.52;6.32;;;23.40;99.90;;;;;;5090803;28;20234;-67
2023/08/16 06:35:51;;;;;;;6.68;6.15;;;23.50;99.90;;;;;;5086875;28;20268;-67
2023/08/16 06:38:18;;;;;;;8.02;6.82;;;23.60;99.90;;;;;;5086107;28;20357;-68
2023/08/16 06:40:46;;;;;;;6.65;5.97;;;23.60;99.90;;;;;;5094043;28;20256;-69
2023/08/16 06:43:13;;;;;;;6.50;5.90;;;23.70;99.90;;;;;;5086301;28;20722;-68
2023/08/16 06:45:40;;;;;;;10.52;7.22;;;23.80;99.90;;;;;;5086343;28;20236;-68
2023/08/16 06:48:08;;;;;;;6.85;6.15;;;23.90;99.90;;;;;;5085997;28;20762;-68
2023/08/16 06:50:35;;;;;;;6.93;6.30;;;24.00;99.90;;;;;;5085994;28;20242;-68
2023/08/16 06:53:03;;;;;;;7.28;6.65;;;24.00;99.90;;;;;;5086290;28;20211;-67
2023/08/16 06:55:30;;;;;;;6.80;6.30;;;24.00;99.90;;;;;;5086276;28;20206;-67
2023/08/16 06:57:57;;;;;;;7.10;6.22;;;24.00;99.90;;;;;;5085759;28;20697;-67
2023/08/16 07:00:24;;;;;;;6.40;5.85;;;24.00;99.90;;;;;;5086321;28;20569;-67
2023/08/16 07:02:52;;;;;;;6.43;5.88;;;24.00;99.90;;;;;;5086016;28;20202;-67
2023/08/16 07:05:25;;;;;;;6.15;5.57;;;24.10;99.90;;;;;;5086208;28;20207;-67
2023/08/16 07:07:52;;;;;;;6.00;5.50;;;24.20;99.90;;;;;;5086315;28;20277;-67
2023/08/16 07:10:19;;;;;;;6.47;5.95;;;24.30;99.90;;;;;;5085405;28;20287;-68
2023/08/16 07:12:47;;;;;;;6.00;5.55;;;24.30;99.90;;;;;;5085119;28;20203;-67
2023/08/16 07:15:14;;;;;;;6.38;5.97;;;24.40;99.90;;;;;;5085369;28;20211;-67
2023/08/16 07:17:41;;;;;;;6.20;5.70;;;24.30;99.90;;;;;;5085378;28;20217;-67
2023/08/16 07:20:08;;;;;;;5.60;5.20;;;24.30;99.90;;;;;;5085312;28;20664;-67
2023/08/16 07:22:37;;;;;;;5.65;5.20;;;24.40;99.90;;;;;;5085015;28;20234;-69
2023/08/16 07:25:07;;;;;;;5.80;5.30;;;24.50;99.90;;;;;;5084912;28;20238;-67
2023/08/16 07:27:34;;;;;;;5.80;5.30;;;24.60;99.90;;;;;;5084805;28;20207;-67
2023/08/16 07:30:01;;;;;;;5.63;5.13;;;24.60;99.90;;;;;;5084965;28;20280;-68
2023/08/16 07:32:28;;;;;;;5.65;5.22;;;24.70;99.90;;;;;;5085179;28;20260;-67
2023/08/16 07:34:55;;;;;;;5.55;5.15;;;24.70;99.90;;;;;;5084698;28;20213;-67
2023/08/16 07:37:23;;;;;;;5.32;4.97;;;24.70;99.90;;;;;;5102701;28;20238;-67
2023/08/16 07:39:51;;;;;;;4.78;4.47;;;24.80;99.90;;;;;;5105037;28;20326;-67
2023/08/16 07:42:19;;;;;;;5.43;5.03;;;24.70;99.90;;;;;;5105137;28;20618;-67
2023/08/16 07:44:46;;;;;;;5.80;5.18;;;24.70;99.90;;;;;;5105091;28;20843;-67
2023/08/16 07:47:14;;;;;;;5.63;4.95;;;24.70;99.90;;;;;;5105270;28;20218;-67
2023/08/16 07:49:42;;;;;;;5.20;4.80;;;24.70;99.90;;;;;;5105194;28;20221;-67
2023/08/16 07:52:09;;;;;;;5.70;5.22;;;24.70;99.90;;;;;;5105176;28;20237;-67
2023/08/16 07:54:36;;;;;;;5.10;4.70;;;24.60;99.90;;;;;;5105032;28;20209;-67
2023/08/16 07:57:05;;;;;;;5.15;4.68;;;24.60;99.90;;;;;;5105006;28;20244;-67
2023/08/16 07:59:33;;;;;;;5.00;4.60;;;24.70;99.90;;;;;;5104526;28;20226;-67
2023/08/16 08:02:00;;;;;;;4.97;4.50;;;24.80;99.90;;;;;;5104924;28;20260;-67
2023/08/16 08:04:27;;;;;;;5.15;4.75;;;24.80;99.90;;;;;;5104992;28;20263;-67
2023/08/16 08:06:56;;;;;;;5.05;4.57;;;24.80;99.90;;;;;;5104770;28;20284;-67
2023/08/16 08:09:23;;;;;;;6.32;5.15;;;24.90;99.90;;;;;;5105206;28;20241;-67
2023/08/16 08:11:50;;;;;;;6.35;5.13;;;24.90;99.90;;;;;;5105310;28;20210;-68
2023/08/16 08:14:19;;;;;;;5.15;4.75;;;25.00;99.90;;;;;;5104586;28;20288;-67
2023/08/16 08:16:46;;;;;;;5.30;4.80;;;25.00;99.90;;;;;;5104887;28;20324;-67
2023/08/16 08:19:16;;;;;;;6.72;5.43;;;25.00;99.90;;;;;;5104785;28;20665;-67
2023/08/16 08:21:45;;;;;;;6.95;4.82;;;25.00;99.90;;;;;;5092000;28;20710;-67
2023/08/16 08:24:13;;;;;;;5.35;4.70;;;25.00;99.90;;;;;;5087551;27;20207;-67
2023/08/16 08:26:44;;;;;;;5.45;4.97;;;24.90;99.90;;;;;;5109074;28;20210;-67
2023/08/16 08:29:13;;;;;;;5.72;5.22;;;24.90;99.90;;;;;;5108890;28;20194;-67
2023/08/16 08:31:42;;;;;;;7.07;5.03;;;24.90;99.90;;;;;;5107768;28;20206;-67
2023/08/16 08:34:14;;;;;;;6.78;4.68;;;24.90;99.90;;;;;;5088802;28;20207;-67
2023/08/16 08:36:43;;;;;;;5.38;4.60;;;24.70;99.90;;;;;;5088221;28;20205;-67
2023/08/16 08:39:10;;;;;;;5.60;4.53;;;24.70;99.90;;;;;;5088119;28;20258;-67
2023/08/16 08:41:38;;;;;;;5.15;4.65;;;24.80;99.90;;;;;;5103069;28;20304;-67
2023/08/16 08:44:05;;;;;;;5.13;4.60;;;24.90;99.90;;;;;;5108755;28;20233;-67
2023/08/16 08:46:34;;;;;;;6.43;5.47;;;25.00;99.90;;;;;;5108782;28;20217;-67
2023/08/16 08:49:03;;;;;;;6.90;5.13;;;24.90;99.90;;;;;;5108903;28;20553;-67
2023/08/16 08:51:34;;;;;;;7.00;4.65;;;25.00;99.90;;;;;;5108631;28;20205;-68
2023/08/16 08:54:02;;;;;;;5.47;4.13;;;25.10;99.90;;;;;;5108817;28;20201;-67
2023/08/16 08:56:31;;;;;;;4.20;3.80;;;25.20;99.90;;;;;;5108480;28;20267;-67
2023/08/16 08:59:00;;;;;;;3.97;3.67;;;25.30;99.90;;;;;;5108189;28;20229;-67
2023/08/16 09:01:28;;;;;;;4.38;4.00;;;25.30;99.90;;;;;;5108281;28;20255;-67
2023/08/16 09:03:57;;;;;;;4.45;3.80;;;25.40;99.90;;;;;;5108543;28;20210;-67
2023/08/16 09:06:26;;;;;;;6.25;3.88;;;25.50;99.90;;;;;;5107945;28;20262;-68
2023/08/16 09:08:54;;;;;;;3.85;3.63;;;25.60;99.90;;;;;;5108261;28;20244;-68
2023/08/16 09:11:21;;;;;;;4.60;3.90;;;25.60;99.90;;;;;;5107900;28;20209;-67
2023/08/16 09:13:49;;;;;;;4.72;4.25;;;25.80;99.90;;;;;;5108257;28;20206;-66
2023/08/16 09:16:18;;;;;;;4.13;3.70;;;25.90;99.90;;;;;;5107789;28;20213;-66
2023/08/16 09:18:54;;;;;;;4.25;3.85;;;26.10;99.90;;;;;;5108294;28;20226;-67
2023/08/16 09:21:28;;;;;;;4.78;4.38;;;26.10;99.90;;;;;;5106836;28;20213;-66
2023/08/16 09:23:59;;;;;;;4.82;4.50;;;26.20;99.90;;;;;;5107529;28;20589;-66
2023/08/16 09:26:28;;;;;;;6.22;4.43;;;26.30;99.90;;;;;;5107597;28;20260;-66
2023/08/16 09:28:58;;;;;;;4.70;4.22;;;26.30;99.90;;;;;;5107319;28;20210;-66
2023/08/16 09:31:29;;;;;;;5.20;3.83;;;26.30;99.90;;;;;;5107765;28;20289;-66
2023/08/16 09:33:58;;;;;;;4.70;3.90;;;26.40;99.90;;;;;;5107846;28;20220;-66
2023/08/16 09:36:29;;;;;;;3.83;3.53;;;26.40;99.90;;;;;;5107503;28;20210;-67
2023/08/16 09:39:00;;;;;;;3.53;3.33;;;26.40;99.90;;;;;;5104650;28;20724;-67
2023/08/16 09:41:31;;;;;;;3.53;3.22;;;26.50;99.90;;;;;;5107456;27;20939;-67
2023/08/16 09:44:06;;;;;;;2.83;2.70;;;26.50;99.90;;;;;;5107148;28;20724;-67
2023/08/16 09:46:38;;;;;;;3.05;2.88;;;26.50;99.90;;;;;;5107600;28;20229;-68
2023/08/16 09:49:07;;;;;;;3.35;3.15;;;26.50;99.90;;;;;;5107845;28;20206;-67
2023/08/16 09:51:37;;;;;;;3.65;3.33;;;26.60;99.90;;;;;;5107249;28;20737;-65
2023/08/16 09:54:11;;;;;;;3.83;2.88;;;26.70;99.90;;;;;;5107407;28;20672;-66
2023/08/16 09:56:40;;;;;;;3.88;3.58;;;26.70;99.90;;;;;;5107267;28;20204;-67
2023/08/16 09:59:12;;;;;;;3.83;3.53;;;26.80;99.90;;;;;;5107123;28;20234;-67
2023/08/16 10:01:39;;;;;;;4.07;3.78;;;26.80;99.90;;;;;;5106820;27;20202;-67
2023/08/16 10:04:07;;;;;;;3.83;3.53;;;26.90;99.90;;;;;;5107106;28;20694;-67
2023/08/16 10:06:38;;;;;;;3.72;3.33;;;26.90;99.90;;;;;;5106762;28;20521;-67
2023/08/16 10:09:09;;;;;;;3.83;3.42;;;26.80;99.90;;;;;;5107223;28;20198;-67
2023/08/16 10:11:40;;;;;;;4.18;3.28;;;26.90;99.90;;;;;;5107249;28;20664;-67
2023/08/16 10:14:09;;;;;;;5.93;3.97;;;26.90;99.90;;;;;;5106448;28;20194;-67
2023/08/16 10:16:37;;;;;;;4.80;3.53;;;27.00;99.90;;;;;;5107113;27;20255;-67
2023/08/16 10:19:05;;;;;;;5.10;3.97;;;27.10;99.90;;;;;;5127136;27;20596;-67
2023/08/16 10:21:44;;;;;;;5.50;3.90;;;27.20;99.90;;;;;;5115520;27;20241;-67
2023/08/16 10:24:15;;;;;;;4.43;3.80;;;27.20;99.90;;;;;;5106889;28;20209;-67
2023/08/16 10:26:47;;;;;;;5.53;3.95;;;27.30;99.90;;;;;;5106791;28;20259;-67
2023/08/16 10:29:18;;;;;;;3.55;3.35;;;27.40;99.90;;;;;;5106832;28;20202;-67
2023/08/16 10:31:50;;;;;;;4.35;3.17;;;27.50;99.90;;;;;;5107199;28;20198;-67
2023/08/16 10:34:21;;;;;;;3.60;3.40;;;27.60;99.90;;;;;;5106618;28;20190;-67
2023/08/16 10:36:51;;;;;;;5.43;3.70;;;27.70;99.90;;;;;;5106327;28;20254;-67
2023/08/16 10:39:22;;;;;;;3.83;3.35;;;27.90;99.90;;;;;;5106757;28;20677;-67
2023/08/16 10:41:50;;;;;;;3.42;3.22;;;28.00;99.90;;;;;;5106382;28;20202;-67
2023/08/16 10:44:29;;;;;;;4.75;3.78;;;28.20;99.90;;;;;;5106120;28;20293;-67
2023/08/16 10:46:56;;;;;;;4.00;3.70;;;28.20;99.90;;;;;;5105960;28;20201;-67
2023/08/16 10:49:23;;;;;;;5.80;3.50;;;28.10;99.90;;;;;;5106498;28;20210;-67
2023/08/16 10:51:55;;;;;;;3.55;3.30;;;28.20;99.90;;;;;;5106257;28;20214;-67
2023/08/16 10:54:33;;;;;;;4.03;3.72;;;28.40;99.90;;;;;;5106306;28;20668;-67
2023/08/16 10:57:02;;;;;;;3.83;3.53;;;28.50;99.90;;;;;;5106295;28;20194;-67
2023/08/16 10:59:38;;;;;;;3.40;3.20;;;28.60;99.90;;;;;;5106446;28;20233;-67
2023/08/16 11:02:14;;;;;;;4.40;3.40;;;28.70;99.90;;;;;;5106288;28;20255;-67
2023/08/16 11:04:42;;;;;;;4.88;3.70;;;28.80;99.90;;;;;;5106468;28;20540;-67
2023/08/16 11:07:10;;;;;;;4.05;3.65;;;28.80;99.90;;;;;;5106588;28;20248;-67
2023/08/16 11:09:37;;;;;;;4.30;3.92;;;29.00;99.90;;;;;;5106019;28;20736;-66
2023/08/16 11:12:06;;;;;;;3.95;3.72;;;29.20;99.90;;;;;;5087958;28;20320;-67
2023/08/16 11:14:41;;;;;;;4.45;3.70;;;29.30;99.90;;;;;;5085838;28;20231;-67
2023/08/16 11:17:14;;;;;;;5.97;3.88;;;29.60;99.90;;;;;;5085959;28;20221;-67
2023/08/16 11:20:23;;;;;;;3.70;3.40;;;29.70;99.90;;;;;;5085594;28;20254;-67
2023/08/16 11:22:55;;;;;;;3.15;2.95;;;29.90;99.90;;;;;;5085852;28;20594;-67
2023/08/16 11:25:22;;;;;;;3.67;3.45;;;30.00;99.90;;;;;;5086181;28;20286;-67
2023/08/16 11:27:52;;;;;;;3.80;3.50;;;30.00;99.90;;;;;;5085592;28;20210;-67
2023/08/16 11:30:19;;;;;;;4.13;3.50;;;29.90;99.90;;;;;;5085005;28;20210;-67
2023/08/16 11:32:46;;;;;;;4.32;3.92;;;30.00;99.90;;;;;;5085654;28;20207;-67
2023/08/16 11:35:16;;;;;;;3.92;3.55;;;29.90;99.90;;;;;;5085401;28;20291;-66
2023/08/16 11:37:43;;;;;;;3.08;2.88;;;29.90;99.90;;;;;;5085029;28;20644;-67
2023/08/16 11:40:12;;;;;;;3.80;3.50;;;29.90;99.90;;;;;;5089610;28;20358;-67
2023/08/16 11:42:39;;;;;;;3.63;3.25;;;29.80;99.90;;;;;;5125570;28;20319;-67
2023/08/16 11:45:20;;;;;;;3.75;3.55;;;29.80;99.90;;;;;;5126117;28;20210;-66
2023/08/16 11:47:52;;;;;;;4.68;3.58;;;29.70;99.90;;;;;;5126349;28;20683;-67
2023/08/16 11:50:19;;;;;;;3.47;3.22;;;29.70;99.90;;;;;;5126059;28;20193;-67
2023/08/16 11:52:57;;;;;;;3.40;3.10;;;29.70;99.90;;;;;;5126071;27;20208;-67
2023/08/16 11:55:28;;;;;;;5.47;3.70;;;29.60;99.90;;;;;;5126012;27;20281;-67
2023/08/16 11:57:55;;;;;;;4.03;3.72;;;29.60;99.90;;;;;;5125518;27;20709;-67
2023/08/16 12:00:29;;;;;;;3.92;3.60;;;29.40;99.90;;;;;;5129007;27;20243;-67
2023/08/16 12:02:56;;;;;;;3.50;3.30;;;29.40;99.90;;;;;;5130224;27;20212;-67
2023/08/16 12:05:25;;;;;;;3.40;3.10;;;29.40;99.90;;;;;;5130110;27;20213;-67
2023/08/16 12:07:55;;;;;;;3.22;3.03;;;29.50;99.90;;;;;;5130232;27;20221;-66
2023/08/16 12:10:28;;;;;;;3.58;3.28;;;29.60;99.90;;;;;;5117451;27;20587;-66
2023/08/16 12:12:55;;;;;;;3.35;3.15;;;29.80;99.90;;;;;;5109074;28;20194;-67
2023/08/16 12:15:26;;;;;;;4.15;3.30;;;30.00;99.90;;;;;;5109284;28;20635;-67
2023/08/16 12:17:55;;;;;;;2.88;2.70;;;30.30;99.90;;;;;;5109117;28;20210;-67
2023/08/16 12:20:24;;;;;;;3.20;3.00;;;30.60;99.90;;;;;;5108577;28;20310;-67
2023/08/16 12:22:52;;;;;;;3.97;2.90;;;30.80;99.90;;;;;;5109403;28;20301;-67
2023/08/16 12:25:19;;;;;;;3.33;2.95;;;30.90;99.90;;;;;;5109214;28;20722;-67
2023/08/16 12:27:48;;;;;;;4.18;3.40;;;30.90;99.90;;;;;;5108695;28;20221;-67
2023/08/16 12:30:15;;;;;;;3.50;3.30;;;31.00;99.90;;;;;;5108493;28;20255;-67
2023/08/16 12:32:42;;;;;;;3.45;3.20;;;30.90;99.90;;;;;;5108353;28;20301;-67
2023/08/16 12:35:09;;;;;;;3.47;3.17;;;30.60;99.90;;;;;;5108269;28;20205;-67
2023/08/16 12:37:40;;;;;;;3.33;3.13;;;30.30;99.90;;;;;;5107940;28;20241;-67
2023/08/16 12:40:09;;;;;;;3.30;3.10;;;30.00;99.90;;;;;;5108667;27;20333;-67
2023/08/16 12:42:36;;;;;;;4.15;3.40;;;29.80;99.90;;;;;;5108170;28;20649;-67
2023/08/16 12:45:06;;;;;;;3.40;3.20;;;29.70;99.90;;;;;;5108247;28;20205;-67
2023/08/16 12:47:33;;;;;;;3.42;3.20;;;29.70;99.90;;;;;;5108485;28;20214;-67
2023/08/16 12:50:00;;;;;;;3.45;2.90;;;29.70;99.90;;;;;;5108265;28;20213;-67
2023/08/16 12:52:28;;;;;;;3.30;3.00;;;29.50;99.90;;;;;;5107911;28;20206;-67
2023/08/16 12:54:57;;;;;;;3.20;2.97;;;29.50;99.90;;;;;;5107871;28;20233;-67